sensor_id;sensor_type;location;lat;lon;timestamp;P1;durP1;ratioP1;P2;durP2;ratioP2
32633;SDS011;19043;51.012;5.648;2024-01-11T00:01:33;24.60;;;11.63;;
32633;SDS011;19043;51.012;5.648;2024-01-11T00:03:58;24.40;;;13.02;;
32633;SDS011;19043;51.012;5.648;2024-01-11T00:06:24;27.88;;;13.07;;
32633;SDS011;19043;51.012;5.648;2024-01-11T00:08:49;24.40;;;13.48;;
32633;SDS011;19043;51.012;5.648;2024-01-11T00:11:14;24.67;;;13.80;;
32633;SDS011;19043;51.012;5.648;2024-01-11T00:13:39;30.40;;;13.50;;
32633;SDS011;19043;51.012;5.648;2024-01-11T00:16:04;22.80;;;12.45;;
32633;SDS011;19043;51.012;5.648;2024-01-11T00:18:30;23.55;;;12.32;;
32633;SDS011;19043;51.012;5.648;2024-01-11T00:20:55;25.45;;;12.13;;
32633;SDS011;19043;51.012;5.648;2024-01-11T00:23:20;25.35;;;12.15;;
32633;SDS011;19043;51.012;5.648;2024-01-11T00:25:46;33.22;;;12.82;;
32633;SDS011;19043;51.012;5.648;2024-01-11T00:28:11;21.25;;;12.75;;
32633;SDS011;19043;51.012;5.648;2024-01-11T00:30:37;25.10;;;12.63;;
32633;SDS011;19043;51.012;5.648;2024-01-11T00:33:02;22.88;;;11.48;;
32633;SDS011;19043;51.012;5.648;2024-01-11T00:35:27;23.17;;;11.57;;
32633;SDS011;19043;51.012;5.648;2024-01-11T00:37:53;24.52;;;12.20;;
32633;SDS011;19043;51.012;5.648;2024-01-11T00:40:18;20.55;;;11.00;;
32633;SDS011;19043;51.012;5.648;2024-01-11T00:42:43;24.70;;;12.43;;
32633;SDS011;19043;51.012;5.648;2024-01-11T00:45:08;33.42;;;13.70;;
32633;SDS011;19043;51.012;5.648;2024-01-11T00:47:34;23.33;;;12.43;;
32633;SDS011;19043;51.012;5.648;2024-01-11T00:49:59;21.35;;;11.50;;
32633;SDS011;19043;51.012;5.648;2024-01-11T00:52:24;29.27;;;13.05;;
32633;SDS011;19043;51.012;5.648;2024-01-11T00:54:50;24.45;;;12.20;;
32633;SDS011;19043;51.012;5.648;2024-01-11T00:57:15;26.23;;;11.07;;
32633;SDS011;19043;51.012;5.648;2024-01-11T00:59:40;29.23;;;11.45;;
32633;SDS011;19043;51.012;5.648;2024-01-11T01:02:06;29.15;;;11.30;;
32633;SDS011;19043;51.012;5.648;2024-01-11T01:04:31;24.80;;;12.00;;
32633;SDS011;19043;51.012;5.648;2024-01-11T01:06:56;23.40;;;11.02;;
32633;SDS011;19043;51.012;5.648;2024-01-11T01:09:22;20.52;;;10.52;;
32633;SDS011;19043;51.012;5.648;2024-01-11T01:11:47;19.08;;;10.93;;
32633;SDS011;19043;51.012;5.648;2024-01-11T01:14:12;23.73;;;12.20;;
32633;SDS011;19043;51.012;5.648;2024-01-11T01:16:38;22.60;;;11.70;;
32633;SDS011;19043;51.012;5.648;2024-01-11T01:19:03;21.65;;;11.88;;
32633;SDS011;19043;51.012;5.648;2024-01-11T01:21:28;23.23;;;10.77;;
32633;SDS011;19043;51.012;5.648;2024-01-11T01:23:53;27.00;;;11.65;;
32633;SDS011;19043;51.012;5.648;2024-01-11T01:26:19;25.80;;;11.65;;
32633;SDS011;19043;51.012;5.648;2024-01-11T01:28:45;24.55;;;10.93;;
32633;SDS011;19043;51.012;5.648;2024-01-11T01:31:11;28.83;;;10.82;;
32633;SDS011;19043;51.012;5.648;2024-01-11T01:33:36;25.33;;;12.30;;
32633;SDS011;19043;51.012;5.648;2024-01-11T01:36:02;25.45;;;11.40;;
32633;SDS011;19043;51.012;5.648;2024-01-11T01:38:27;20.80;;;11.07;;
32633;SDS011;19043;51.012;5.648;2024-01-11T01:40:52;22.35;;;12.18;;
32633;SDS011;19043;51.012;5.648;2024-01-11T01:43:17;31.83;;;10.63;;
32633;SDS011;19043;51.012;5.648;2024-01-11T01:45:43;20.85;;;11.25;;
32633;SDS011;19043;51.012;5.648;2024-01-11T01:48:08;23.77;;;12.20;;
32633;SDS011;19043;51.012;5.648;2024-01-11T01:50:33;24.40;;;11.52;;
32633;SDS011;19043;51.012;5.648;2024-01-11T01:52:59;20.98;;;11.05;;
32633;SDS011;19043;51.012;5.648;2024-01-11T01:55:25;27.88;;;12.23;;
32633;SDS011;19043;51.012;5.648;2024-01-11T01:57:51;24.05;;;11.55;;
32633;SDS011;19043;51.012;5.648;2024-01-11T02:00:16;31.15;;;11.52;;
32633;SDS011;19043;51.012;5.648;2024-01-11T02:02:42;25.20;;;11.45;;
32633;SDS011;19043;51.012;5.648;2024-01-11T02:05:08;24.20;;;11.20;;
32633;SDS011;19043;51.012;5.648;2024-01-11T02:07:34;20.63;;;10.75;;
32633;SDS011;19043;51.012;5.648;2024-01-11T02:10:00;23.27;;;10.65;;
32633;SDS011;19043;51.012;5.648;2024-01-11T02:12:26;24.35;;;10.50;;
32633;SDS011;19043;51.012;5.648;2024-01-11T02:14:53;23.02;;;11.32;;
32633;SDS011;19043;51.012;5.648;2024-01-11T02:17:18;18.20;;;10.43;;
32633;SDS011;19043;51.012;5.648;2024-01-11T02:19:43;28.75;;;11.70;;
32633;SDS011;19043;51.012;5.648;2024-01-11T02:22:11;22.55;;;11.15;;
32633;SDS011;19043;51.012;5.648;2024-01-11T02:24:38;21.45;;;10.57;;
32633;SDS011;19043;51.012;5.648;2024-01-11T02:27:04;23.95;;;11.65;;
32633;SDS011;19043;51.012;5.648;2024-01-11T02:29:29;23.52;;;11.25;;
32633;SDS011;19043;51.012;5.648;2024-01-11T02:31:56;19.52;;;11.55;;
32633;SDS011;19043;51.012;5.648;2024-01-11T02:34:22;24.67;;;11.13;;
32633;SDS011;19043;51.012;5.648;2024-01-11T02:36:47;30.45;;;12.23;;
32633;SDS011;19043;51.012;5.648;2024-01-11T02:39:13;31.65;;;12.73;;
32633;SDS011;19043;51.012;5.648;2024-01-11T02:41:39;25.40;;;11.82;;
32633;SDS011;19043;51.012;5.648;2024-01-11T02:44:04;27.60;;;13.20;;
32633;SDS011;19043;51.012;5.648;2024-01-11T02:46:30;25.13;;;12.15;;
32633;SDS011;19043;51.012;5.648;2024-01-11T02:48:55;23.00;;;11.93;;
32633;SDS011;19043;51.012;5.648;2024-01-11T02:51:20;30.77;;;12.38;;
32633;SDS011;19043;51.012;5.648;2024-01-11T02:53:45;29.77;;;12.70;;
32633;SDS011;19043;51.012;5.648;2024-01-11T02:56:10;25.08;;;12.70;;
32633;SDS011;19043;51.012;5.648;2024-01-11T02:58:36;23.45;;;12.63;;
32633;SDS011;19043;51.012;5.648;2024-01-11T03:01:01;23.50;;;13.13;;
32633;SDS011;19043;51.012;5.648;2024-01-11T03:03:26;21.50;;;13.13;;
32633;SDS011;19043;51.012;5.648;2024-01-11T03:05:52;28.55;;;11.95;;
32633;SDS011;19043;51.012;5.648;2024-01-11T03:08:17;27.10;;;12.60;;
32633;SDS011;19043;51.012;5.648;2024-01-11T03:10:43;23.23;;;12.73;;
32633;SDS011;19043;51.012;5.648;2024-01-11T03:13:08;29.30;;;13.38;;
32633;SDS011;19043;51.012;5.648;2024-01-11T03:15:33;21.63;;;11.88;;
32633;SDS011;19043;51.012;5.648;2024-01-11T03:17:58;19.67;;;10.45;;
32633;SDS011;19043;51.012;5.648;2024-01-11T03:20:24;25.27;;;10.55;;
32633;SDS011;19043;51.012;5.648;2024-01-11T03:22:52;23.00;;;10.57;;
32633;SDS011;19043;51.012;5.648;2024-01-11T03:25:18;26.88;;;11.75;;
32633;SDS011;19043;51.012;5.648;2024-01-11T03:27:43;22.15;;;11.90;;
32633;SDS011;19043;51.012;5.648;2024-01-11T03:30:08;24.35;;;12.27;;
32633;SDS011;19043;51.012;5.648;2024-01-11T03:32:34;25.40;;;10.90;;
32633;SDS011;19043;51.012;5.648;2024-01-11T03:34:59;27.52;;;12.93;;
32633;SDS011;19043;51.012;5.648;2024-01-11T03:37:24;23.42;;;11.98;;
32633;SDS011;19043;51.012;5.648;2024-01-11T03:39:49;27.13;;;11.70;;
32633;SDS011;19043;51.012;5.648;2024-01-11T03:42:15;24.63;;;11.70;;
32633;SDS011;19043;51.012;5.648;2024-01-11T03:44:40;24.15;;;12.32;;
32633;SDS011;19043;51.012;5.648;2024-01-11T03:47:05;22.73;;;11.63;;
32633;SDS011;19043;51.012;5.648;2024-01-11T03:49:31;30.17;;;11.38;;
32633;SDS011;19043;51.012;5.648;2024-01-11T03:51:56;25.38;;;13.00;;
32633;SDS011;19043;51.012;5.648;2024-01-11T03:54:21;24.33;;;12.32;;
32633;SDS011;19043;51.012;5.648;2024-01-11T03:56:47;30.02;;;12.30;;
32633;SDS011;19043;51.012;5.648;2024-01-11T03:59:13;25.48;;;11.13;;
32633;SDS011;19043;51.012;5.648;2024-01-11T04:01:40;25.85;;;12.10;;
32633;SDS011;19043;51.012;5.648;2024-01-11T04:04:05;28.33;;;12.18;;
32633;SDS011;19043;51.012;5.648;2024-01-11T04:06:30;28.95;;;13.48;;
32633;SDS011;19043;51.012;5.648;2024-01-11T04:08:56;24.90;;;12.23;;
32633;SDS011;19043;51.012;5.648;2024-01-11T04:11:21;27.48;;;11.82;;
32633;SDS011;19043;51.012;5.648;2024-01-11T04:13:47;28.40;;;12.27;;
32633;SDS011;19043;51.012;5.648;2024-01-11T04:16:12;22.80;;;11.18;;
32633;SDS011;19043;51.012;5.648;2024-01-11T04:18:38;26.23;;;12.05;;
32633;SDS011;19043;51.012;5.648;2024-01-11T04:21:03;27.33;;;11.80;;
32633;SDS011;19043;51.012;5.648;2024-01-11T04:23:28;30.65;;;12.25;;
32633;SDS011;19043;51.012;5.648;2024-01-11T04:25:54;25.45;;;12.48;;
32633;SDS011;19043;51.012;5.648;2024-01-11T04:28:19;29.15;;;12.60;;
32633;SDS011;19043;51.012;5.648;2024-01-11T04:30:45;32.08;;;13.15;;
32633;SDS011;19043;51.012;5.648;2024-01-11T04:33:10;24.85;;;12.18;;
32633;SDS011;19043;51.012;5.648;2024-01-11T04:35:35;23.92;;;12.02;;
32633;SDS011;19043;51.012;5.648;2024-01-11T04:38:01;26.33;;;14.25;;
32633;SDS011;19043;51.012;5.648;2024-01-11T04:40:26;32.60;;;14.10;;
32633;SDS011;19043;51.012;5.648;2024-01-11T04:42:51;25.83;;;14.55;;
32633;SDS011;19043;51.012;5.648;2024-01-11T04:45:16;28.92;;;13.48;;
32633;SDS011;19043;51.012;5.648;2024-01-11T04:47:42;24.25;;;13.80;;
32633;SDS011;19043;51.012;5.648;2024-01-11T04:50:08;34.60;;;13.77;;
32633;SDS011;19043;51.012;5.648;2024-01-11T04:52:33;30.77;;;14.18;;
32633;SDS011;19043;51.012;5.648;2024-01-11T04:54:59;27.77;;;13.23;;
32633;SDS011;19043;51.012;5.648;2024-01-11T04:57:24;26.77;;;13.60;;
32633;SDS011;19043;51.012;5.648;2024-01-11T04:59:49;31.27;;;14.30;;
32633;SDS011;19043;51.012;5.648;2024-01-11T05:02:14;23.90;;;12.77;;
32633;SDS011;19043;51.012;5.648;2024-01-11T05:04:40;28.90;;;13.38;;
32633;SDS011;19043;51.012;5.648;2024-01-11T05:07:05;26.48;;;13.77;;
32633;SDS011;19043;51.012;5.648;2024-01-11T05:09:30;38.47;;;16.48;;
32633;SDS011;19043;51.012;5.648;2024-01-11T05:11:55;29.60;;;15.77;;
32633;SDS011;19043;51.012;5.648;2024-01-11T05:14:21;34.08;;;14.75;;
32633;SDS011;19043;51.012;5.648;2024-01-11T05:16:46;35.55;;;15.88;;
32633;SDS011;19043;51.012;5.648;2024-01-11T05:19:11;30.48;;;14.88;;
32633;SDS011;19043;51.012;5.648;2024-01-11T05:21:36;31.75;;;14.30;;
32633;SDS011;19043;51.012;5.648;2024-01-11T05:24:02;28.20;;;13.25;;
32633;SDS011;19043;51.012;5.648;2024-01-11T05:26:27;29.35;;;13.43;;
32633;SDS011;19043;51.012;5.648;2024-01-11T05:28:52;30.27;;;15.07;;
32633;SDS011;19043;51.012;5.648;2024-01-11T05:31:17;29.92;;;13.95;;
32633;SDS011;19043;51.012;5.648;2024-01-11T05:33:43;33.47;;;14.82;;
32633;SDS011;19043;51.012;5.648;2024-01-11T05:36:08;31.58;;;14.45;;
32633;SDS011;19043;51.012;5.648;2024-01-11T05:38:34;23.42;;;14.02;;
32633;SDS011;19043;51.012;5.648;2024-01-11T05:41:00;26.52;;;14.00;;
32633;SDS011;19043;51.012;5.648;2024-01-11T05:43:25;34.78;;;15.48;;
32633;SDS011;19043;51.012;5.648;2024-01-11T05:45:51;32.03;;;15.55;;
32633;SDS011;19043;51.012;5.648;2024-01-11T05:48:16;35.15;;;15.88;;
32633;SDS011;19043;51.012;5.648;2024-01-11T05:50:42;31.90;;;15.45;;
32633;SDS011;19043;51.012;5.648;2024-01-11T05:53:07;35.22;;;16.73;;
32633;SDS011;19043;51.012;5.648;2024-01-11T05:55:32;31.55;;;15.68;;
32633;SDS011;19043;51.012;5.648;2024-01-11T05:57:58;33.63;;;15.88;;
32633;SDS011;19043;51.012;5.648;2024-01-11T06:00:23;35.97;;;15.80;;
32633;SDS011;19043;51.012;5.648;2024-01-11T06:02:48;33.28;;;16.98;;
32633;SDS011;19043;51.012;5.648;2024-01-11T06:05:14;31.58;;;15.30;;
32633;SDS011;19043;51.012;5.648;2024-01-11T06:07:43;37.75;;;17.85;;
32633;SDS011;19043;51.012;5.648;2024-01-11T06:10:12;32.30;;;14.90;;
32633;SDS011;19043;51.012;5.648;2024-01-11T06:12:37;30.33;;;15.43;;
32633;SDS011;19043;51.012;5.648;2024-01-11T06:15:03;37.45;;;15.88;;
32633;SDS011;19043;51.012;5.648;2024-01-11T06:17:28;31.58;;;15.90;;
32633;SDS011;19043;51.012;5.648;2024-01-11T06:19:55;34.78;;;17.30;;
32633;SDS011;19043;51.012;5.648;2024-01-11T06:22:20;30.67;;;16.08;;
32633;SDS011;19043;51.012;5.648;2024-01-11T06:24:45;33.65;;;15.52;;
32633;SDS011;19043;51.012;5.648;2024-01-11T06:27:11;38.08;;;17.17;;
32633;SDS011;19043;51.012;5.648;2024-01-11T06:29:36;34.03;;;16.75;;
32633;SDS011;19043;51.012;5.648;2024-01-11T06:32:01;43.13;;;19.95;;
32633;SDS011;19043;51.012;5.648;2024-01-11T06:34:27;38.33;;;17.60;;
32633;SDS011;19043;51.012;5.648;2024-01-11T06:36:53;37.65;;;17.88;;
32633;SDS011;19043;51.012;5.648;2024-01-11T06:39:18;35.33;;;17.80;;
32633;SDS011;19043;51.012;5.648;2024-01-11T06:41:43;36.67;;;18.20;;
32633;SDS011;19043;51.012;5.648;2024-01-11T06:44:09;34.80;;;16.67;;
32633;SDS011;19043;51.012;5.648;2024-01-11T06:46:34;42.78;;;20.85;;
32633;SDS011;19043;51.012;5.648;2024-01-11T06:49:01;33.50;;;15.25;;
32633;SDS011;19043;51.012;5.648;2024-01-11T06:51:26;33.38;;;16.25;;
32633;SDS011;19043;51.012;5.648;2024-01-11T06:53:51;30.05;;;15.70;;
32633;SDS011;19043;51.012;5.648;2024-01-11T06:56:17;35.38;;;15.75;;
32633;SDS011;19043;51.012;5.648;2024-01-11T06:58:43;32.92;;;16.20;;
32633;SDS011;19043;51.012;5.648;2024-01-11T07:01:08;28.52;;;13.57;;
32633;SDS011;19043;51.012;5.648;2024-01-11T07:03:34;33.08;;;15.15;;
32633;SDS011;19043;51.012;5.648;2024-01-11T07:05:59;27.17;;;14.65;;
32633;SDS011;19043;51.012;5.648;2024-01-11T07:08:24;26.48;;;13.73;;
32633;SDS011;19043;51.012;5.648;2024-01-11T07:10:49;31.85;;;14.02;;
32633;SDS011;19043;51.012;5.648;2024-01-11T07:13:15;37.72;;;14.65;;
32633;SDS011;19043;51.012;5.648;2024-01-11T07:15:42;31.63;;;15.48;;
32633;SDS011;19043;51.012;5.648;2024-01-11T07:18:07;29.60;;;14.48;;
32633;SDS011;19043;51.012;5.648;2024-01-11T07:20:32;29.75;;;14.90;;
32633;SDS011;19043;51.012;5.648;2024-01-11T07:22:58;32.55;;;13.63;;
32633;SDS011;19043;51.012;5.648;2024-01-11T07:25:23;35.97;;;14.93;;
32633;SDS011;19043;51.012;5.648;2024-01-11T07:27:49;34.70;;;15.43;;
32633;SDS011;19043;51.012;5.648;2024-01-11T07:30:14;32.30;;;15.32;;
32633;SDS011;19043;51.012;5.648;2024-01-11T07:32:39;30.15;;;15.27;;
32633;SDS011;19043;51.012;5.648;2024-01-11T07:35:05;33.72;;;14.82;;
32633;SDS011;19043;51.012;5.648;2024-01-11T07:37:31;39.35;;;16.23;;
32633;SDS011;19043;51.012;5.648;2024-01-11T07:39:56;32.05;;;15.43;;
32633;SDS011;19043;51.012;5.648;2024-01-11T07:42:22;34.72;;;16.48;;
32633;SDS011;19043;51.012;5.648;2024-01-11T07:44:47;33.67;;;15.85;;
32633;SDS011;19043;51.012;5.648;2024-01-11T07:47:12;31.13;;;14.73;;
32633;SDS011;19043;51.012;5.648;2024-01-11T07:49:37;30.02;;;15.55;;
32633;SDS011;19043;51.012;5.648;2024-01-11T07:52:03;39.97;;;16.02;;
32633;SDS011;19043;51.012;5.648;2024-01-11T07:54:29;28.45;;;15.15;;
32633;SDS011;19043;51.012;5.648;2024-01-11T07:56:56;28.83;;;15.63;;
32633;SDS011;19043;51.012;5.648;2024-01-11T07:59:21;28.65;;;14.25;;
32633;SDS011;19043;51.012;5.648;2024-01-11T08:01:46;32.28;;;14.77;;
32633;SDS011;19043;51.012;5.648;2024-01-11T08:04:13;30.38;;;14.60;;
32633;SDS011;19043;51.012;5.648;2024-01-11T08:06:38;39.58;;;16.17;;
32633;SDS011;19043;51.012;5.648;2024-01-11T08:09:03;43.90;;;17.58;;
32633;SDS011;19043;51.012;5.648;2024-01-11T08:11:29;36.75;;;14.95;;
32633;SDS011;19043;51.012;5.648;2024-01-11T08:13:55;32.75;;;16.88;;
32633;SDS011;19043;51.012;5.648;2024-01-11T08:16:20;34.47;;;14.15;;
32633;SDS011;19043;51.012;5.648;2024-01-11T08:18:46;36.08;;;16.98;;
32633;SDS011;19043;51.012;5.648;2024-01-11T08:21:11;33.10;;;15.60;;
32633;SDS011;19043;51.012;5.648;2024-01-11T08:23:39;43.70;;;16.90;;
32633;SDS011;19043;51.012;5.648;2024-01-11T08:26:05;30.35;;;14.50;;
32633;SDS011;19043;51.012;5.648;2024-01-11T08:28:31;36.17;;;16.65;;
32633;SDS011;19043;51.012;5.648;2024-01-11T08:30:57;29.83;;;17.27;;
32633;SDS011;19043;51.012;5.648;2024-01-11T08:33:22;31.50;;;16.83;;
32633;SDS011;19043;51.012;5.648;2024-01-11T08:35:47;35.35;;;16.50;;
32633;SDS011;19043;51.012;5.648;2024-01-11T08:38:13;32.83;;;16.50;;
32633;SDS011;19043;51.012;5.648;2024-01-11T08:40:38;39.58;;;19.05;;
32633;SDS011;19043;51.012;5.648;2024-01-11T08:43:04;37.63;;;16.77;;
32633;SDS011;19043;51.012;5.648;2024-01-11T08:45:29;39.05;;;18.05;;
32633;SDS011;19043;51.012;5.648;2024-01-11T08:47:56;42.25;;;19.75;;
32633;SDS011;19043;51.012;5.648;2024-01-11T08:50:21;40.65;;;19.42;;
32633;SDS011;19043;51.012;5.648;2024-01-11T08:52:46;38.28;;;17.52;;
32633;SDS011;19043;51.012;5.648;2024-01-11T08:55:12;31.80;;;17.90;;
32633;SDS011;19043;51.012;5.648;2024-01-11T08:57:37;38.53;;;18.73;;
32633;SDS011;19043;51.012;5.648;2024-01-11T09:00:03;38.03;;;17.55;;
32633;SDS011;19043;51.012;5.648;2024-01-11T09:02:29;33.83;;;18.92;;
32633;SDS011;19043;51.012;5.648;2024-01-11T09:04:54;33.47;;;17.63;;
32633;SDS011;19043;51.012;5.648;2024-01-11T09:07:19;36.70;;;20.35;;
32633;SDS011;19043;51.012;5.648;2024-01-11T09:09:45;35.47;;;19.35;;
32633;SDS011;19043;51.012;5.648;2024-01-11T09:12:10;37.50;;;20.10;;
32633;SDS011;19043;51.012;5.648;2024-01-11T09:14:36;37.67;;;18.58;;
32633;SDS011;19043;51.012;5.648;2024-01-11T09:17:01;41.45;;;19.90;;
32633;SDS011;19043;51.012;5.648;2024-01-11T09:19:26;39.47;;;19.88;;
32633;SDS011;19043;51.012;5.648;2024-01-11T09:21:52;39.30;;;19.13;;
32633;SDS011;19043;51.012;5.648;2024-01-11T09:24:17;36.42;;;19.60;;
32633;SDS011;19043;51.012;5.648;2024-01-11T09:26:42;33.20;;;18.08;;
32633;SDS011;19043;51.012;5.648;2024-01-11T09:29:07;38.80;;;20.73;;
32633;SDS011;19043;51.012;5.648;2024-01-11T09:31:32;45.33;;;22.00;;
32633;SDS011;19043;51.012;5.648;2024-01-11T09:33:58;38.13;;;20.80;;
32633;SDS011;19043;51.012;5.648;2024-01-11T09:36:23;39.38;;;20.65;;
32633;SDS011;19043;51.012;5.648;2024-01-11T09:38:48;42.88;;;22.15;;
32633;SDS011;19043;51.012;5.648;2024-01-11T09:41:14;48.33;;;21.60;;
32633;SDS011;19043;51.012;5.648;2024-01-11T09:43:42;38.88;;;22.38;;
32633;SDS011;19043;51.012;5.648;2024-01-11T09:46:08;41.35;;;22.45;;
32633;SDS011;19043;51.012;5.648;2024-01-11T09:48:34;43.00;;;23.52;;
32633;SDS011;19043;51.012;5.648;2024-01-11T09:51:01;42.15;;;21.45;;
32633;SDS011;19043;51.012;5.648;2024-01-11T09:53:27;39.13;;;22.52;;
32633;SDS011;19043;51.012;5.648;2024-01-11T09:55:53;48.80;;;23.85;;
32633;SDS011;19043;51.012;5.648;2024-01-11T09:58:19;38.08;;;21.08;;
32633;SDS011;19043;51.012;5.648;2024-01-11T10:00:45;42.50;;;21.10;;
32633;SDS011;19043;51.012;5.648;2024-01-11T10:03:11;41.58;;;22.50;;
32633;SDS011;19043;51.012;5.648;2024-01-11T10:05:37;38.63;;;20.63;;
32633;SDS011;19043;51.012;5.648;2024-01-11T10:08:03;40.42;;;21.38;;
32633;SDS011;19043;51.012;5.648;2024-01-11T10:10:28;36.15;;;21.13;;
32633;SDS011;19043;51.012;5.648;2024-01-11T10:12:53;38.55;;;21.75;;
32633;SDS011;19043;51.012;5.648;2024-01-11T10:15:21;43.95;;;23.10;;
32633;SDS011;19043;51.012;5.648;2024-01-11T10:17:49;39.53;;;20.60;;
32633;SDS011;19043;51.012;5.648;2024-01-11T10:20:14;42.58;;;23.10;;
32633;SDS011;19043;51.012;5.648;2024-01-11T10:22:41;37.70;;;21.05;;
32633;SDS011;19043;51.012;5.648;2024-01-11T10:27:36;40.65;;;20.92;;
32633;SDS011;19043;51.012;5.648;2024-01-11T10:30:01;45.85;;;23.48;;
32633;SDS011;19043;51.012;5.648;2024-01-11T10:32:30;36.33;;;20.27;;
32633;SDS011;19043;51.012;5.648;2024-01-11T10:34:55;43.70;;;21.15;;
32633;SDS011;19043;51.012;5.648;2024-01-11T10:37:21;38.47;;;20.35;;
32633;SDS011;19043;51.012;5.648;2024-01-11T10:39:47;41.80;;;22.42;;
32633;SDS011;19043;51.012;5.648;2024-01-11T10:42:15;35.40;;;18.73;;
32633;SDS011;19043;51.012;5.648;2024-01-11T10:44:42;36.38;;;20.85;;
32633;SDS011;19043;51.012;5.648;2024-01-11T10:47:10;33.17;;;19.65;;
32633;SDS011;19043;51.012;5.648;2024-01-11T10:49:36;41.22;;;21.00;;
32633;SDS011;19043;51.012;5.648;2024-01-11T10:52:04;37.78;;;21.52;;
32633;SDS011;19043;51.012;5.648;2024-01-11T10:54:31;35.25;;;20.27;;
32633;SDS011;19043;51.012;5.648;2024-01-11T10:56:56;36.88;;;20.95;;
32633;SDS011;19043;51.012;5.648;2024-01-11T10:59:24;39.25;;;20.77;;
32633;SDS011;19043;51.012;5.648;2024-01-11T11:01:54;35.15;;;19.38;;
32633;SDS011;19043;51.012;5.648;2024-01-11T11:04:22;37.10;;;19.90;;
32633;SDS011;19043;51.012;5.648;2024-01-11T11:06:48;33.78;;;19.38;;
32633;SDS011;19043;51.012;5.648;2024-01-11T11:09:14;37.03;;;19.60;;
32633;SDS011;19043;51.012;5.648;2024-01-11T11:11:40;38.03;;;20.52;;
32633;SDS011;19043;51.012;5.648;2024-01-11T11:14:05;35.15;;;19.45;;
32633;SDS011;19043;51.012;5.648;2024-01-11T11:16:31;37.67;;;19.88;;
32633;SDS011;19043;51.012;5.648;2024-01-11T11:18:56;41.05;;;19.90;;
32633;SDS011;19043;51.012;5.648;2024-01-11T11:21:22;36.72;;;19.77;;
32633;SDS011;19043;51.012;5.648;2024-01-11T11:23:49;39.10;;;19.77;;
32633;SDS011;19043;51.012;5.648;2024-01-11T11:26:15;40.60;;;19.98;;
32633;SDS011;19043;51.012;5.648;2024-01-11T11:28:41;36.05;;;19.95;;
32633;SDS011;19043;51.012;5.648;2024-01-11T11:31:07;32.22;;;18.70;;
32633;SDS011;19043;51.012;5.648;2024-01-11T11:33:32;31.55;;;20.35;;
32633;SDS011;19043;51.012;5.648;2024-01-11T11:35:57;37.35;;;20.05;;
32633;SDS011;19043;51.012;5.648;2024-01-11T11:38:26;31.30;;;18.83;;
32633;SDS011;19043;51.012;5.648;2024-01-11T11:40:51;32.47;;;19.08;;
32633;SDS011;19043;51.012;5.648;2024-01-11T11:43:17;31.92;;;18.30;;
32633;SDS011;19043;51.012;5.648;2024-01-11T11:45:43;34.50;;;16.27;;
32633;SDS011;19043;51.012;5.648;2024-01-11T11:51:11;26.77;;;17.05;;
32633;SDS011;19043;51.012;5.648;2024-01-11T11:53:37;28.50;;;16.15;;
32633;SDS011;19043;51.012;5.648;2024-01-11T11:56:02;29.58;;;15.93;;
32633;SDS011;19043;51.012;5.648;2024-01-11T11:58:28;28.85;;;15.55;;
32633;SDS011;19043;51.012;5.648;2024-01-11T12:01:03;28.83;;;15.50;;
32633;SDS011;19043;51.012;5.648;2024-01-11T12:03:32;28.58;;;17.55;;
32633;SDS011;19043;51.012;5.648;2024-01-11T12:05:58;29.33;;;16.45;;
32633;SDS011;19043;51.012;5.648;2024-01-11T12:08:24;29.45;;;15.43;;
32633;SDS011;19043;51.012;5.648;2024-01-11T12:10:49;27.27;;;15.32;;
32633;SDS011;19043;51.012;5.648;2024-01-11T12:13:15;25.27;;;15.73;;
32633;SDS011;19043;51.012;5.648;2024-01-11T12:15:41;29.55;;;15.23;;
32633;SDS011;19043;51.012;5.648;2024-01-11T12:18:06;26.38;;;15.15;;
32633;SDS011;19043;51.012;5.648;2024-01-11T12:20:32;29.25;;;16.17;;
32633;SDS011;19043;51.012;5.648;2024-01-11T12:22:58;27.55;;;13.63;;
32633;SDS011;19043;51.012;5.648;2024-01-11T12:25:23;26.50;;;14.13;;
32633;SDS011;19043;51.012;5.648;2024-01-11T12:27:48;24.83;;;14.85;;
32633;SDS011;19043;51.012;5.648;2024-01-11T12:30:14;25.90;;;14.38;;
32633;SDS011;19043;51.012;5.648;2024-01-11T12:32:42;29.10;;;15.27;;
32633;SDS011;19043;51.012;5.648;2024-01-11T12:35:07;27.27;;;14.10;;
32633;SDS011;19043;51.012;5.648;2024-01-11T12:37:33;27.30;;;14.15;;
32633;SDS011;19043;51.012;5.648;2024-01-11T12:39:58;27.77;;;14.73;;
32633;SDS011;19043;51.012;5.648;2024-01-11T12:42:24;24.60;;;14.13;;
32633;SDS011;19043;51.012;5.648;2024-01-11T12:44:49;24.27;;;13.77;;
32633;SDS011;19043;51.012;5.648;2024-01-11T12:47:16;24.00;;;14.45;;
32633;SDS011;19043;51.012;5.648;2024-01-11T12:49:45;27.88;;;14.68;;
32633;SDS011;19043;51.012;5.648;2024-01-11T12:52:17;23.10;;;13.95;;
32633;SDS011;19043;51.012;5.648;2024-01-11T12:54:43;24.92;;;13.43;;
32633;SDS011;19043;51.012;5.648;2024-01-11T12:57:11;24.30;;;13.27;;
32633;SDS011;19043;51.012;5.648;2024-01-11T12:59:36;24.67;;;13.23;;
32633;SDS011;19043;51.012;5.648;2024-01-11T13:02:01;27.65;;;13.80;;
32633;SDS011;19043;51.012;5.648;2024-01-11T13:04:27;27.48;;;14.13;;
32633;SDS011;19043;51.012;5.648;2024-01-11T13:06:52;21.92;;;13.68;;
32633;SDS011;19043;51.012;5.648;2024-01-11T13:09:18;24.15;;;13.88;;
32633;SDS011;19043;51.012;5.648;2024-01-11T13:11:43;24.73;;;14.77;;
32633;SDS011;19043;51.012;5.648;2024-01-11T13:14:09;22.35;;;12.60;;
32633;SDS011;19043;51.012;5.648;2024-01-11T13:16:39;21.30;;;12.75;;
32633;SDS011;19043;51.012;5.648;2024-01-11T13:19:04;26.30;;;14.60;;
32633;SDS011;19043;51.012;5.648;2024-01-11T13:21:30;24.38;;;14.02;;
32633;SDS011;19043;51.012;5.648;2024-01-11T13:23:55;20.90;;;12.77;;
32633;SDS011;19043;51.012;5.648;2024-01-11T13:26:22;19.10;;;12.95;;
32633;SDS011;19043;51.012;5.648;2024-01-11T13:28:47;27.98;;;13.88;;
32633;SDS011;19043;51.012;5.648;2024-01-11T13:31:12;24.60;;;12.90;;
32633;SDS011;19043;51.012;5.648;2024-01-11T13:33:37;26.87;;;13.20;;
32633;SDS011;19043;51.012;5.648;2024-01-11T13:36:03;24.67;;;12.77;;
32633;SDS011;19043;51.012;5.648;2024-01-11T13:38:28;21.20;;;11.90;;
32633;SDS011;19043;51.012;5.648;2024-01-11T13:40:54;18.48;;;13.00;;
32633;SDS011;19043;51.012;5.648;2024-01-11T13:43:19;28.65;;;13.30;;
32633;SDS011;19043;51.012;5.648;2024-01-11T13:45:44;24.67;;;13.17;;
32633;SDS011;19043;51.012;5.648;2024-01-11T13:48:09;23.70;;;13.88;;
32633;SDS011;19043;51.012;5.648;2024-01-11T13:50:35;22.83;;;12.55;;
32633;SDS011;19043;51.012;5.648;2024-01-11T13:53:00;25.70;;;13.95;;
32633;SDS011;19043;51.012;5.648;2024-01-11T13:55:25;21.02;;;12.70;;
32633;SDS011;19043;51.012;5.648;2024-01-11T13:57:51;18.73;;;12.52;;
32633;SDS011;19043;51.012;5.648;2024-01-11T14:00:17;26.00;;;13.30;;
32633;SDS011;19043;51.012;5.648;2024-01-11T14:02:43;21.73;;;12.85;;
32633;SDS011;19043;51.012;5.648;2024-01-11T14:05:09;22.50;;;13.60;;
32633;SDS011;19043;51.012;5.648;2024-01-11T14:07:36;23.20;;;13.13;;
32633;SDS011;19043;51.012;5.648;2024-01-11T14:10:02;22.30;;;12.73;;
32633;SDS011;19043;51.012;5.648;2024-01-11T14:12:27;19.88;;;12.43;;
32633;SDS011;19043;51.012;5.648;2024-01-11T14:14:53;18.23;;;11.35;;
32633;SDS011;19043;51.012;5.648;2024-01-11T14:17:18;18.17;;;10.68;;